createdAt,value
2022-10-07T00:04:02.715Z,14.54
2022-10-07T00:08:05.730Z,14.48
2022-10-07T00:12:11.533Z,14.45
2022-10-07T00:16:17.526Z,14.46
2022-10-07T00:20:21.369Z,14.48
2022-10-07T00:24:24.363Z,14.53
2022-10-07T00:28:29.583Z,14.58
2022-10-07T00:32:32.635Z,14.61
2022-10-07T00:36:38.001Z,14.66
2022-10-07T00:40:41.637Z,14.70
2022-10-07T00:44:48.030Z,14.76
2022-10-07T00:48:51.405Z,14.78
2022-10-07T00:52:58.449Z,14.80
2022-10-07T00:57:01.704Z,14.81
2022-10-07T01:01:07.124Z,14.83
2022-10-07T01:05:14.369Z,14.83
2022-10-07T01:09:18.125Z,14.83
2022-10-07T01:17:33.850Z,14.84
2022-10-07T01:21:44.529Z,14.85
2022-10-07T01:26:19.775Z,14.88
2022-10-07T01:30:24.346Z,14.91
2022-10-07T01:34:28.407Z,14.90
2022-10-07T01:38:33.918Z,14.89
2022-10-07T01:42:38.011Z,14.89
2022-10-07T01:46:44.872Z,14.87
2022-10-07T01:50:50.505Z,14.90
2022-10-07T01:55:16.826Z,14.89
2022-10-07T01:59:35.123Z,14.89
2022-10-07T02:03:59.229Z,14.86
2022-10-07T02:08:14.281Z,14.77
2022-10-07T02:12:25.363Z,14.79
2022-10-07T02:16:34.636Z,14.75
2022-10-07T02:20:42.157Z,14.73
2022-10-07T02:24:47.757Z,14.68
2022-10-07T02:28:55.030Z,14.64
2022-10-07T02:33:03.975Z,14.61
2022-10-07T02:37:17.288Z,14.58
2022-10-07T02:41:34.446Z,14.56
2022-10-07T02:45:46.760Z,14.54
2022-10-07T02:49:53.393Z,14.49
2022-10-07T02:54:01.229Z,14.44
2022-10-07T02:58:07.639Z,14.38
2022-10-07T03:02:19.459Z,14.33
2022-10-07T03:06:25.274Z,14.30
2022-10-07T03:10:30.428Z,14.27
2022-10-07T03:14:35.856Z,14.24
2022-10-07T03:18:39.687Z,14.23
2022-10-07T03:22:43.781Z,14.23
2022-10-07T03:26:48.975Z,14.22
2022-10-07T03:30:52.742Z,14.22
2022-10-07T03:34:56.692Z,14.21
2022-10-07T03:38:59.794Z,14.19
2022-10-07T03:43:05.175Z,14.18
2022-10-07T03:47:10.665Z,14.18
2022-10-07T03:51:14.516Z,14.23
2022-10-07T03:55:17.800Z,14.31
2022-10-07T03:59:23.201Z,14.38
2022-10-07T04:03:26.417Z,14.52
2022-10-07T04:07:30.066Z,14.63
2022-10-07T04:11:33.297Z,14.72
2022-10-07T04:15:40.821Z,14.84
2022-10-07T04:19:44.024Z,14.93
2022-10-07T04:23:46.972Z,15.02
2022-10-07T04:27:54.391Z,15.06
2022-10-07T04:31:58.899Z,15.21
2022-10-07T04:36:06.253Z,15.28
2022-10-07T04:40:10.457Z,15.31
2022-10-07T04:44:14.008Z,15.38
2022-10-07T04:48:20.437Z,15.47
2022-10-07T04:52:23.948Z,15.53
2022-10-07T04:56:28.536Z,15.57
2022-10-07T05:00:32.413Z,15.61
2022-10-07T05:04:37.230Z,15.66
2022-10-07T05:08:43.893Z,15.68
2022-10-07T05:12:46.934Z,15.73
2022-10-07T05:16:50.248Z,15.77
2022-10-07T05:20:55.451Z,15.82
2022-10-07T05:24:59.412Z,15.85
2022-10-07T05:29:02.502Z,15.88
2022-10-07T05:33:06.096Z,15.92
2022-10-07T05:37:11.048Z,15.94
2022-10-07T05:41:14.304Z,15.97
2022-10-07T05:45:18.446Z,15.99
2022-10-07T05:49:22.085Z,16.01
2022-10-07T05:53:26.961Z,16.04
2022-10-07T05:57:30.579Z,16.06
2022-10-07T06:01:34.572Z,16.07
2022-10-07T06:05:37.633Z,16.08
2022-10-07T06:09:59.710Z,16.11
2022-10-07T06:14:03.171Z,16.12
2022-10-07T06:18:06.620Z,16.14
2022-10-07T06:22:09.728Z,16.15
2022-10-07T06:26:15.043Z,16.17
2022-10-07T06:30:18.192Z,16.16
2022-10-07T06:34:21.812Z,16.14
2022-10-07T06:38:25.294Z,16.13
2022-10-07T06:42:29.696Z,16.12
2022-10-07T06:46:33.146Z,16.14
2022-10-07T06:50:36.241Z,16.17
2022-10-07T06:54:39.753Z,16.21
2022-10-07T06:58:44.599Z,16.24
2022-10-07T07:02:48.225Z,16.25
2022-10-07T07:06:52.110Z,16.32
2022-10-07T07:10:55.407Z,16.34
2022-10-07T07:15:00.872Z,16.43
2022-10-07T07:19:07.406Z,16.48
2022-10-07T07:23:11.559Z,16.52
2022-10-07T07:27:15.397Z,16.57
2022-10-07T07:31:19.817Z,16.64
2022-10-07T07:35:23.016Z,16.72
2022-10-07T07:39:26.633Z,16.79
2022-10-07T07:43:29.898Z,16.88
2022-10-07T07:47:36.171Z,16.96
2022-10-07T07:51:39.718Z,17.02
2022-10-07T07:55:53.518Z,17.08
2022-10-07T07:59:57.250Z,17.13
2022-10-07T08:04:02.941Z,17.20
2022-10-07T08:08:05.951Z,17.24
2022-10-07T08:12:09.856Z,17.30
2022-10-07T08:16:15.212Z,17.37
2022-10-07T08:20:19.912Z,17.47
2022-10-07T08:24:25.553Z,17.57
2022-10-07T08:28:29.280Z,17.63
2022-10-07T08:32:32.824Z,17.67
2022-10-07T08:36:37.689Z,17.77
2022-10-07T08:40:48.878Z,17.87
2022-10-07T08:44:53.078Z,17.93
2022-10-07T08:49:00.390Z,17.97
2022-10-07T08:53:09.074Z,17.98
2022-10-07T08:57:20.551Z,18.00
2022-10-07T09:01:37.838Z,17.99
2022-10-07T09:05:45.863Z,18.09
2022-10-07T09:09:56.547Z,18.18
2022-10-07T09:14:03.870Z,18.28
2022-10-07T09:18:18.189Z,18.40
2022-10-07T09:22:23.849Z,18.47
2022-10-07T09:26:33.601Z,18.57
2022-10-07T09:30:37.128Z,18.63
2022-10-07T09:34:42.584Z,18.77
2022-10-07T09:38:48.434Z,18.88
2022-10-07T09:42:52.903Z,19.03
2022-10-07T09:47:00.230Z,19.13
2022-10-07T09:51:18.070Z,19.31
2022-10-07T09:55:37.859Z,19.48
2022-10-07T09:59:42.356Z,19.63
2022-10-07T10:03:45.946Z,19.71
2022-10-07T10:07:56.228Z,19.82
2022-10-07T10:12:14.889Z,19.95
2022-10-07T10:16:36.782Z,20.15
2022-10-07T10:20:44.106Z,20.38
2022-10-07T10:25:04.828Z,20.48
2022-10-07T10:29:18.850Z,20.41
2022-10-07T10:33:37.761Z,20.43
2022-10-07T10:38:00.106Z,20.44
2022-10-07T10:42:09.673Z,20.45
2022-10-07T10:46:32.938Z,20.44
2022-10-07T10:50:51.561Z,20.42
2022-10-07T10:55:45.839Z,20.39
2022-10-07T11:00:05.446Z,20.30
2022-10-07T11:04:39.619Z,20.33
2022-10-07T11:08:45.360Z,20.34
2022-10-07T11:12:54.819Z,20.38
2022-10-07T11:17:04.006Z,20.34
2022-10-07T11:21:13.246Z,20.34
2022-10-07T11:25:28.545Z,20.36
2022-10-07T11:29:42.019Z,20.45
2022-10-07T11:33:52.024Z,20.51
2022-10-07T11:38:02.016Z,20.60
2022-10-07T11:42:14.672Z,20.66
2022-10-07T11:46:22.260Z,20.62
2022-10-07T11:50:31.888Z,20.52
2022-10-07T11:54:43.471Z,20.51
2022-10-07T11:58:57.783Z,20.48
2022-10-07T12:03:14.641Z,20.51
2022-10-07T12:07:52.335Z,20.50
2022-10-07T12:11:58.051Z,20.35
2022-10-07T12:16:44.317Z,20.34
2022-10-07T12:20:58.829Z,20.30
2022-10-07T12:25:32.792Z,20.28
2022-10-07T12:29:50.370Z,20.26
2022-10-07T12:34:01.869Z,20.25
2022-10-07T12:38:06.216Z,20.21
2022-10-07T12:42:14.495Z,20.08
2022-10-07T12:46:21.146Z,20.07
2022-10-07T12:50:29.029Z,20.00
2022-10-07T12:54:37.945Z,19.97
2022-10-07T12:59:26.805Z,20.00
2022-10-07T13:04:14.461Z,20.08
2022-10-07T13:08:51.402Z,20.18
2022-10-07T13:12:56.915Z,20.31
2022-10-07T13:17:05.574Z,20.44
2022-10-07T13:21:17.407Z,20.56
2022-10-07T13:25:23.810Z,20.67
2022-10-07T13:29:31.517Z,20.71
2022-10-07T13:33:34.902Z,20.74
2022-10-07T13:37:39.954Z,20.71
2022-10-07T13:41:48.148Z,20.73
2022-10-07T13:45:51.206Z,20.69
2022-10-07T13:49:55.953Z,20.62
2022-10-07T13:54:01.505Z,20.63
2022-10-07T13:58:07.676Z,20.66
2022-10-07T14:02:16.019Z,20.63
2022-10-07T14:06:38.237Z,20.62
2022-10-07T14:10:52.543Z,20.61
2022-10-07T14:15:03.870Z,20.55
2022-10-07T14:19:07.279Z,20.52
2022-10-07T14:23:24.072Z,20.47
2022-10-07T14:27:42.634Z,20.39
2022-10-07T14:32:19.034Z,20.31
2022-10-07T14:36:24.189Z,20.24
2022-10-07T14:40:27.176Z,20.16
2022-10-07T14:44:31.276Z,20.10
2022-10-07T14:48:36.563Z,20.04
2022-10-07T14:52:45.078Z,19.97
2022-10-07T14:56:48.688Z,19.87
2022-10-07T15:00:53.253Z,19.83
2022-10-07T15:04:58.325Z,19.76
2022-10-07T15:09:01.775Z,19.68
2022-10-07T15:13:11.060Z,19.60
2022-10-07T15:17:16.272Z,19.54
2022-10-07T15:21:21.038Z,19.45
2022-10-07T15:25:24.577Z,19.33
2022-10-07T15:29:28.340Z,19.21
2022-10-07T15:33:31.609Z,19.07
2022-10-07T15:37:36.103Z,18.92
2022-10-07T15:41:41.101Z,18.78
2022-10-07T15:45:47.069Z,18.67
2022-10-07T15:49:50.307Z,18.55
2022-10-07T15:53:55.379Z,18.44
2022-10-07T15:57:59.565Z,18.34
2022-10-07T16:02:03.932Z,18.24
2022-10-07T16:06:10.353Z,18.15
2022-10-07T16:10:15.350Z,18.08
2022-10-07T16:14:19.026Z,17.99
2022-10-07T16:18:22.024Z,17.91
2022-10-07T16:22:25.958Z,17.82
2022-10-07T16:26:31.972Z,17.73
2022-10-07T16:30:45.410Z,17.64
2022-10-07T16:34:48.927Z,17.55
2022-10-07T16:38:53.438Z,17.44
2022-10-07T16:43:00.272Z,17.36
2022-10-07T16:47:03.869Z,17.29
2022-10-07T16:51:09.856Z,17.23
2022-10-07T16:55:14.065Z,17.17
2022-10-07T16:59:23.193Z,17.14
2022-10-07T17:03:27.154Z,17.11
2022-10-07T17:07:30.797Z,17.07
2022-10-07T17:11:35.677Z,17.05
2022-10-07T17:15:42.374Z,17.01
2022-10-07T17:19:45.874Z,16.93
2022-10-07T17:23:49.174Z,16.88
2022-10-07T17:27:52.620Z,16.84
2022-10-07T17:31:57.265Z,16.80
2022-10-07T17:36:07.809Z,16.78
2022-10-07T17:40:11.897Z,16.75
2022-10-07T17:44:16.243Z,16.69
2022-10-07T17:48:21.099Z,16.68
2022-10-07T17:52:27.513Z,16.65
2022-10-07T17:56:32.803Z,16.63
2022-10-07T18:05:01.941Z,16.60
2022-10-07T18:09:06.996Z,16.58
2022-10-07T18:13:28.777Z,16.53
2022-10-07T18:17:32.132Z,16.48
2022-10-07T18:21:36.701Z,16.44
2022-10-07T18:25:40.438Z,16.40
2022-10-07T18:29:43.904Z,16.37
2022-10-07T18:33:47.036Z,16.33
2022-10-07T18:37:54.251Z,16.23
2022-10-07T18:41:58.506Z,16.25
2022-10-07T18:46:03.615Z,16.21
